PWSweather.com
Personal Weather Stations
Station Observations
KMSOLIVE48
Olive Branch, MS

Olive Branch, MS

Lat: 34.927, Lon: -89.859

Elevation: 364

Station Type:

Latest ConditionsUpdated 9:31:00 AM CDT Monday, Mar 25, 2019
Currently Today's Max Today's Min Today's Average
Temperature 56.8°F13.8°C 63.1°F17.3°C 53.6°F12.0°C 55.7°F13.2°C
Dew Point 56.5°F13.6°C 57.2°F14.0°C 50.4°F10.2°C 54.3°F12.4°C
Winds 3.1 mph N5.0 kmh N 4.7 mph -7.6 kmh - - 0.3 mph 0.5 kmh
Wind Gusts 4.5 mph7.2 kmh 8.1 mph13.0 kmh - -
Humidity 99% 99% 64% 96%
Pressure 29.37 in994.6 mb 29.41 in995.9 mb 29.30 in992.2 mb -
Precipitation - 0.41 in10.4 mm - -
Hour Temp Dew Point Humidity Winds Wind Gusts Pressure Precip Precip Rate Daily Precip Total
09:31 AM 56.8°F13.8°C 56.5°F13.6°C 99% 3.1 mph N5.0 kmh N 4.5 mph7.2 kmh 29.37 in994.6 mb 0.00 in0.0 mm 0.00 in0.0 mm 0.41 in10.4 mm
09:22 AM 57.2°F14.0°C 56.8°F13.8°C 99% 0.4 mph W0.6 kmh W 1.1 mph1.8 kmh 29.37 in994.6 mb 0.00 in0.0 mm 0.00 in0.0 mm 0.41 in10.4 mm
09:16 AM 57.2°F14.0°C 56.8°F13.8°C 99% Calm Calm -- 29.37 in994.6 mb 0.00 in0.0 mm 0.00 in0.0 mm 0.41 in10.4 mm
09:06 AM 57.6°F14.2°C 57.2°F14.0°C 99% 0.4 mph NNW0.6 kmh NNW 1.1 mph1.8 kmh 29.36 in994.2 mb 0.00 in0.0 mm 0.00 in0.0 mm 0.41 in10.4 mm
08:57 AM 57.2°F14.0°C 56.8°F13.8°C 99% 0.9 mph N1.4 kmh N 1.1 mph1.8 kmh 29.36 in994.2 mb 0.00 in0.0 mm 0.00 in0.0 mm 0.41 in10.4 mm
08:51 AM 57.0°F13.9°C 56.7°F13.7°C 99% 0.9 mph NNW1.4 kmh NNW 1.1 mph1.8 kmh 29.36 in994.2 mb 0.00 in0.0 mm 0.00 in0.0 mm 0.41 in10.4 mm
08:42 AM 56.8°F13.8°C 56.5°F13.6°C 99% 0.7 mph N1.1 kmh N 1.1 mph1.8 kmh 29.36 in994.2 mb 0.00 in0.0 mm 0.00 in0.0 mm 0.41 in10.4 mm
08:37 AM 57.2°F14.0°C 56.8°F13.8°C 99% 1.3 mph SW2.1 kmh SW 2.2 mph3.5 kmh 29.36 in994.2 mb 0.00 in0.0 mm 0.00 in0.0 mm 0.41 in10.4 mm
08:32 AM 57.0°F13.9°C 56.7°F13.7°C 99% Calm Calm -- 29.36 in994.2 mb 0.00 in0.0 mm 0.00 in0.0 mm 0.41 in10.4 mm
08:26 AM 56.8°F13.8°C 56.5°F13.6°C 99% 0.2 mph NNW0.3 kmh NNW 1.1 mph1.8 kmh 29.35 in993.9 mb 0.00 in0.0 mm 0.00 in0.0 mm 0.41 in10.4 mm
08:17 AM 56.8°F13.8°C 56.5°F13.6°C 99% Calm Calm -- 29.35 in993.9 mb 0.00 in0.0 mm 0.00 in0.0 mm 0.41 in10.4 mm
08:12 AM 56.7°F13.7°C 56.3°F13.5°C 99% Calm Calm -- 29.35 in993.9 mb 0.00 in0.0 mm 0.00 in0.0 mm 0.41 in10.4 mm
08:08 AM 56.3°F13.5°C 55.9°F13.3°C 99% Calm Calm -- 29.35 in993.9 mb 0.00 in0.0 mm 0.00 in0.0 mm 0.41 in10.4 mm
08:03 AM 56.1°F13.4°C 55.8°F13.2°C 99% Calm Calm -- 29.34 in993.6 mb 0.00 in0.0 mm 0.00 in0.0 mm 0.41 in10.4 mm
07:58 AM 55.9°F13.3°C 55.6°F13.1°C 99% 0.2 mph NNW0.3 kmh NNW 1.1 mph1.8 kmh 29.35 in993.9 mb 0.00 in0.0 mm 0.00 in0.0 mm 0.41 in10.4 mm
07:53 AM 55.9°F13.3°C 55.6°F13.1°C 99% 0.7 mph WNW1.1 kmh WNW 1.1 mph1.8 kmh 29.34 in993.6 mb 0.00 in0.0 mm 0.00 in0.0 mm 0.41 in10.4 mm
07:49 AM 55.8°F13.2°C 55.4°F13.0°C 99% Calm Calm -- 29.34 in993.6 mb 0.00 in0.0 mm 0.00 in0.0 mm 0.41 in10.4 mm
07:44 AM 55.4°F13.0°C 55.0°F12.8°C 99% Calm Calm -- 29.34 in993.6 mb 0.00 in0.0 mm 0.00 in0.0 mm 0.41 in10.4 mm
07:39 AM 55.0°F12.8°C 54.7°F12.6°C 99% Calm Calm -- 29.34 in993.6 mb 0.00 in0.0 mm 0.00 in0.0 mm 0.41 in10.4 mm
07:34 AM 54.5°F12.5°C 54.1°F12.3°C 99% Calm Calm -- 29.34 in993.6 mb 0.00 in0.0 mm 0.00 in0.0 mm 0.41 in10.4 mm
07:29 AM 54.1°F12.3°C 53.8°F12.1°C 99% Calm Calm -- 29.34 in993.6 mb 0.00 in0.0 mm 0.00 in0.0 mm 0.41 in10.4 mm
07:24 AM 54.0°F12.2°C 53.6°F12.0°C 99% Calm Calm -- 29.34 in993.6 mb 0.00 in0.0 mm 0.00 in0.0 mm 0.41 in10.4 mm
07:19 AM 53.8°F12.1°C 53.4°F11.9°C 99% Calm Calm -- 29.34 in993.6 mb 0.00 in0.0 mm 0.00 in0.0 mm 0.41 in10.4 mm
07:14 AM 54.0°F12.2°C 53.6°F12.0°C 99% Calm Calm -- 29.33 in993.2 mb 0.00 in0.0 mm 0.00 in0.0 mm 0.41 in10.4 mm
07:09 AM 54.0°F12.2°C 53.6°F12.0°C 99% Calm Calm -- 29.34 in993.6 mb 0.00 in0.0 mm 0.00 in0.0 mm 0.41 in10.4 mm
07:04 AM 54.1°F12.3°C 53.8°F12.1°C 99% Calm Calm -- 29.33 in993.2 mb 0.00 in0.0 mm 0.00 in0.0 mm 0.41 in10.4 mm
06:59 AM 54.1°F12.3°C 53.8°F12.1°C 99% Calm Calm -- 29.33 in993.2 mb 0.00 in0.0 mm 0.00 in0.0 mm 0.41 in10.4 mm
06:54 AM 54.1°F12.3°C 53.8°F12.1°C 99% 0.7 mph E1.1 kmh E 1.1 mph1.8 kmh 29.34 in993.6 mb 0.00 in0.0 mm 0.00 in0.0 mm 0.41 in10.4 mm
06:49 AM 54.3°F12.4°C 54.0°F12.2°C 99% 0.2 mph E0.3 kmh E 1.1 mph1.8 kmh 29.34 in993.6 mb 0.00 in0.0 mm 0.00 in0.0 mm 0.41 in10.4 mm
06:44 AM 54.3°F12.4°C 54.0°F12.2°C 99% Calm Calm -- 29.34 in993.6 mb 0.00 in0.0 mm 0.00 in0.0 mm 0.41 in10.4 mm
06:39 AM 54.3°F12.4°C 54.0°F12.2°C 99% Calm Calm -- 29.34 in993.6 mb 0.00 in0.0 mm 0.00 in0.0 mm 0.41 in10.4 mm
06:34 AM 54.1°F12.3°C 53.8°F12.1°C 99% Calm Calm -- 29.34 in993.6 mb 0.00 in0.0 mm 0.00 in0.0 mm 0.41 in10.4 mm
06:29 AM 54.3°F12.4°C 54.0°F12.2°C 99% Calm Calm -- 29.34 in993.6 mb 0.00 in0.0 mm 0.00 in0.0 mm 0.41 in10.4 mm
06:24 AM 54.3°F12.4°C 54.0°F12.2°C 99% Calm Calm -- 29.35 in993.9 mb 0.00 in0.0 mm 0.00 in0.0 mm 0.41 in10.4 mm
06:19 AM 54.1°F12.3°C 53.8°F12.1°C 99% Calm Calm -- 29.34 in993.6 mb 0.00 in0.0 mm 0.00 in0.0 mm 0.41 in10.4 mm
06:14 AM 53.8°F12.1°C 53.4°F11.9°C 99% Calm Calm -- 29.34 in993.6 mb 0.00 in0.0 mm 0.00 in0.0 mm 0.41 in10.4 mm
06:09 AM 54.0°F12.2°C 53.6°F12.0°C 99% Calm Calm -- 29.33 in993.2 mb 0.00 in0.0 mm 0.00 in0.0 mm 0.41 in10.4 mm
06:04 AM 54.0°F12.2°C 53.6°F12.0°C 99% Calm Calm -- 29.34 in993.6 mb 0.00 in0.0 mm 0.00 in0.0 mm 0.41 in10.4 mm
05:59 AM 54.0°F12.2°C 53.6°F12.0°C 99% Calm Calm -- 29.33 in993.2 mb 0.00 in0.0 mm 0.00 in0.0 mm 0.41 in10.4 mm
05:54 AM 53.8°F12.1°C 53.4°F11.9°C 99% Calm Calm -- 29.33 in993.2 mb 0.00 in0.0 mm 0.00 in0.0 mm 0.41 in10.4 mm
05:49 AM 53.6°F12.0°C 53.2°F11.8°C 99% Calm Calm -- 29.33 in993.2 mb 0.00 in0.0 mm 0.00 in0.0 mm 0.41 in10.4 mm
05:44 AM 53.6°F12.0°C 53.2°F11.8°C 99% Calm Calm -- 29.32 in992.9 mb 0.00 in0.0 mm 0.00 in0.0 mm 0.41 in10.4 mm
05:39 AM 53.8°F12.1°C 53.4°F11.9°C 99% Calm Calm -- 29.32 in992.9 mb 0.00 in0.0 mm 0.00 in0.0 mm 0.41 in10.4 mm
05:34 AM 53.6°F12.0°C 53.2°F11.8°C 99% Calm Calm -- 29.32 in992.9 mb 0.00 in0.0 mm 0.00 in0.0 mm 0.41 in10.4 mm
05:29 AM 53.6°F12.0°C 53.2°F11.8°C 99% Calm Calm -- 29.32 in992.9 mb 0.00 in0.0 mm 0.00 in0.0 mm 0.41 in10.4 mm
05:24 AM 53.6°F12.0°C 53.2°F11.8°C 99% Calm Calm -- 29.32 in992.9 mb 0.00 in0.0 mm 0.00 in0.0 mm 0.41 in10.4 mm
05:19 AM 53.6°F12.0°C 53.2°F11.8°C 99% Calm Calm -- 29.32 in992.9 mb 0.00 in0.0 mm 0.00 in0.0 mm 0.41 in10.4 mm
05:14 AM 53.6°F12.0°C 53.2°F11.8°C 99% Calm Calm -- 29.32 in992.9 mb 0.00 in0.0 mm 0.00 in0.0 mm 0.41 in10.4 mm
05:09 AM 53.8°F12.1°C 53.4°F11.9°C 99% Calm Calm -- 29.31 in992.6 mb 0.00 in0.0 mm 0.00 in0.0 mm 0.41 in10.4 mm
05:04 AM 53.8°F12.1°C 53.4°F11.9°C 99% Calm Calm -- 29.32 in992.9 mb 0.00 in0.0 mm 0.00 in0.0 mm 0.41 in10.4 mm
04:59 AM 54.0°F12.2°C 53.6°F12.0°C 99% Calm Calm -- 29.31 in992.6 mb 0.00 in0.0 mm 0.00 in0.0 mm 0.41 in10.4 mm
04:54 AM 54.0°F12.2°C 53.6°F12.0°C 99% Calm Calm -- 29.32 in992.9 mb 0.00 in0.0 mm 0.00 in0.0 mm 0.41 in10.4 mm
04:49 AM 54.1°F12.3°C 53.8°F12.1°C 99% Calm Calm -- 29.32 in992.9 mb 0.00 in0.0 mm 0.00 in0.0 mm 0.41 in10.4 mm
04:44 AM 54.1°F12.3°C 53.8°F12.1°C 99% Calm Calm -- 29.32 in992.9 mb 0.00 in0.0 mm 0.00 in0.0 mm 0.41 in10.4 mm
04:39 AM 54.1°F12.3°C 53.8°F12.1°C 99% Calm Calm -- 29.32 in992.9 mb 0.00 in0.0 mm 0.00 in0.0 mm 0.41 in10.4 mm
04:34 AM 54.3°F12.4°C 54.0°F12.2°C 99% Calm Calm -- 29.32 in992.9 mb 0.00 in0.0 mm 0.00 in0.0 mm 0.41 in10.4 mm
04:29 AM 54.1°F12.3°C 53.8°F12.1°C 99% Calm Calm -- 29.32 in992.9 mb 0.00 in0.0 mm 0.00 in0.0 mm 0.41 in10.4 mm
04:24 AM 54.3°F12.4°C 54.0°F12.2°C 99% Calm Calm -- 29.30 in992.2 mb 0.00 in0.0 mm 0.00 in0.0 mm 0.41 in10.4 mm
04:19 AM 54.5°F12.5°C 54.1°F12.3°C 99% Calm Calm -- 29.31 in992.6 mb 0.00 in0.0 mm 0.00 in0.0 mm 0.41 in10.4 mm
04:14 AM 54.3°F12.4°C 54.0°F12.2°C 99% Calm Calm -- 29.32 in992.9 mb 0.00 in0.0 mm 0.00 in0.0 mm 0.41 in10.4 mm
04:09 AM 54.5°F12.5°C 54.1°F12.3°C 99% Calm Calm -- 29.31 in992.6 mb 0.00 in0.0 mm 0.00 in0.0 mm 0.41 in10.4 mm
04:04 AM 54.5°F12.5°C 54.1°F12.3°C 99% Calm Calm -- 29.31 in992.6 mb 0.00 in0.0 mm 0.00 in0.0 mm 0.41 in10.4 mm
03:59 AM 54.5°F12.5°C 54.1°F12.3°C 99% Calm Calm -- 29.32 in992.9 mb 0.00 in0.0 mm 0.00 in0.0 mm 0.41 in10.4 mm
03:54 AM 54.7°F12.6°C 54.3°F12.4°C 99% 0.7 mph E1.1 kmh E 1.1 mph1.8 kmh 29.32 in992.9 mb 0.00 in0.0 mm 0.00 in0.0 mm 0.41 in10.4 mm
03:49 AM 54.7°F12.6°C 54.3°F12.4°C 99% Calm Calm -- 29.32 in992.9 mb 0.00 in0.0 mm 0.00 in0.0 mm 0.41 in10.4 mm
03:44 AM 54.9°F12.7°C 54.5°F12.5°C 99% Calm Calm -- 29.33 in993.2 mb 0.00 in0.0 mm 0.00 in0.0 mm 0.41 in10.4 mm
03:39 AM 54.9°F12.7°C 54.5°F12.5°C 99% Calm Calm -- 29.32 in992.9 mb 0.00 in0.0 mm 0.00 in0.0 mm 0.41 in10.4 mm
03:34 AM 54.9°F12.7°C 54.5°F12.5°C 99% Calm Calm -- 29.33 in993.2 mb 0.00 in0.0 mm 0.00 in0.0 mm 0.41 in10.4 mm
03:29 AM 54.9°F12.7°C 54.5°F12.5°C 99% 0.2 mph E0.3 kmh E 1.1 mph1.8 kmh 29.32 in992.9 mb 0.00 in0.0 mm 0.00 in0.0 mm 0.41 in10.4 mm
03:24 AM 54.9°F12.7°C 54.5°F12.5°C 99% Calm Calm -- 29.34 in993.6 mb 0.00 in0.0 mm 0.00 in0.0 mm 0.41 in10.4 mm
03:19 AM 55.0°F12.8°C 54.7°F12.6°C 99% Calm Calm -- 29.33 in993.2 mb 0.00 in0.0 mm 0.00 in0.0 mm 0.41 in10.4 mm
03:14 AM 55.0°F12.8°C 54.7°F12.6°C 99% 0.4 mph E0.6 kmh E 1.1 mph1.8 kmh 29.32 in992.9 mb 0.00 in0.0 mm 0.00 in0.0 mm 0.41 in10.4 mm
03:09 AM 55.0°F12.8°C 54.7°F12.6°C 99% 0.9 mph E1.4 kmh E 1.1 mph1.8 kmh 29.33 in993.2 mb 0.00 in0.0 mm 0.00 in0.0 mm 0.41 in10.4 mm
03:04 AM 55.0°F12.8°C 54.7°F12.6°C 99% Calm Calm -- 29.34 in993.6 mb 0.00 in0.0 mm 0.00 in0.0 mm 0.41 in10.4 mm
02:59 AM 55.0°F12.8°C 54.7°F12.6°C 99% 0.2 mph E0.3 kmh E 1.1 mph1.8 kmh 29.32 in992.9 mb 0.15 in3.8 mm 0.00 in0.0 mm 0.41 in10.4 mm
02:54 AM 55.2°F12.9°C 54.9°F12.7°C 99% 0.9 mph ENE1.4 kmh ENE 1.1 mph1.8 kmh 29.31 in992.6 mb 0.15 in3.8 mm 0.00 in0.0 mm 0.41 in10.4 mm
02:49 AM 55.2°F12.9°C 54.9°F12.7°C 99% 0.2 mph ENE0.3 kmh ENE 1.1 mph1.8 kmh 29.34 in993.6 mb 0.15 in3.8 mm 0.12 in3.0 mm 0.41 in10.4 mm
02:44 AM 55.2°F12.9°C 54.9°F12.7°C 99% Calm Calm -- 29.35 in993.9 mb 0.14 in3.6 mm 0.24 in6.1 mm 0.40 in10.2 mm
02:39 AM 55.4°F13.0°C 55.0°F12.8°C 99% Calm Calm -- 29.37 in994.6 mb 0.12 in3.0 mm 0.36 in9.1 mm 0.38 in9.7 mm
02:34 AM 55.4°F13.0°C 55.0°F12.8°C 99% 1.1 mph ENE1.8 kmh ENE 1.1 mph1.8 kmh 29.37 in994.6 mb 0.09 in2.3 mm 0.12 in3.0 mm 0.35 in8.9 mm
02:29 AM 55.4°F13.0°C 55.0°F12.8°C 99% 0.7 mph ENE1.1 kmh ENE 1.1 mph1.8 kmh 29.37 in994.6 mb 0.08 in2.0 mm 0.72 in18.3 mm 0.34 in8.6 mm
02:24 AM 55.4°F13.0°C 55.0°F12.8°C 99% Calm Calm -- 29.39 in995.3 mb 0.02 in0.5 mm 0.00 in0.0 mm 0.28 in7.1 mm
02:19 AM 55.4°F13.0°C 55.0°F12.8°C 99% Calm Calm -- 29.36 in994.2 mb 0.02 in0.5 mm 0.00 in0.0 mm 0.28 in7.1 mm
02:14 AM 55.4°F13.0°C 55.0°F12.8°C 99% Calm Calm -- 29.37 in994.6 mb 0.02 in0.5 mm 0.00 in0.0 mm 0.28 in7.1 mm
02:09 AM 55.4°F13.0°C 55.0°F12.8°C 99% Calm Calm -- 29.37 in994.6 mb 0.07 in1.8 mm 0.00 in0.0 mm 0.26 in6.6 mm
02:04 AM 55.4°F13.0°C 55.0°F12.8°C 99% Calm Calm -- 29.37 in994.6 mb 0.07 in1.8 mm 0.00 in0.0 mm 0.26 in6.6 mm
01:59 AM 55.4°F13.0°C 55.0°F12.8°C 99% 0.9 mph NNW1.4 kmh NNW 1.1 mph1.8 kmh 29.37 in994.6 mb 0.08 in2.0 mm 0.00 in0.0 mm 0.25 in6.4 mm
01:54 AM 55.4°F13.0°C 55.0°F12.8°C 99% 0.2 mph NNW0.3 kmh NNW 1.1 mph1.8 kmh 29.37 in994.6 mb 0.08 in2.0 mm 0.00 in0.0 mm 0.25 in6.4 mm
01:49 AM 55.4°F13.0°C 55.0°F12.8°C 99% Calm Calm -- 29.37 in994.6 mb 0.08 in2.0 mm 0.12 in3.0 mm 0.25 in6.4 mm
01:44 AM 55.4°F13.0°C 55.0°F12.8°C 99% Calm Calm -- 29.37 in994.6 mb 0.07 in1.8 mm 0.12 in3.0 mm 0.24 in6.1 mm
01:39 AM 55.4°F13.0°C 55.0°F12.8°C 99% 0.2 mph NNW0.3 kmh NNW 1.1 mph1.8 kmh 29.38 in994.9 mb 0.06 in1.5 mm 0.12 in3.0 mm 0.23 in5.8 mm
01:34 AM 55.4°F13.0°C 55.0°F12.8°C 99% Calm Calm -- 29.38 in994.9 mb 0.05 in1.3 mm 0.24 in6.1 mm 0.22 in5.6 mm
01:29 AM 55.4°F13.0°C 55.0°F12.8°C 99% Calm Calm -- 29.39 in995.3 mb 0.03 in0.8 mm 0.00 in0.0 mm 0.20 in5.1 mm
01:24 AM 55.4°F13.0°C 55.0°F12.8°C 99% Calm Calm -- 29.38 in994.9 mb 0.03 in0.8 mm 0.24 in6.1 mm 0.20 in5.1 mm
01:19 AM 55.4°F13.0°C 55.0°F12.8°C 99% 0.4 mph NNW0.6 kmh NNW 1.1 mph1.8 kmh 29.39 in995.3 mb 0.01 in0.3 mm 0.00 in0.0 mm 0.18 in4.6 mm
01:14 AM 55.4°F13.0°C 55.0°F12.8°C 99% Calm Calm -- 29.39 in995.3 mb 0.01 in0.3 mm 0.00 in0.0 mm 0.18 in4.6 mm
01:09 AM 55.6°F13.1°C 55.0°F12.8°C 98% Calm Calm -- 29.39 in995.3 mb 0.01 in0.3 mm 0.00 in0.0 mm 0.15 in3.8 mm
01:04 AM 55.6°F13.1°C 54.9°F12.7°C 97% 0.9 mph NNW1.4 kmh NNW 1.1 mph1.8 kmh 29.40 in995.6 mb 0.54 in13.7 mm 0.45 in11.4 mm 0.14 in3.6 mm
12:59 AM 55.9°F13.3°C 54.9°F12.7°C 96% 1.6 mph NNW2.6 kmh NNW 3.4 mph5.5 kmh 29.40 in995.6 mb 0.13 in3.3 mm 0.72 in18.3 mm 0.13 in3.3 mm
12:54 AM 58.1°F14.5°C 55.9°F13.3°C 92% 2.2 mph SE3.5 kmh SE 3.4 mph5.5 kmh 29.41 in995.9 mb 0.07 in1.8 mm 0.72 in18.3 mm 0.07 in1.8 mm
12:49 AM 60.8°F16.0°C 53.2°F11.8°C 76% 4.7 mph NNW7.6 kmh NNW 8.1 mph13.0 kmh 29.41 in995.9 mb 0.01 in0.3 mm 0.00 in0.0 mm 0.01 in0.3 mm
12:44 AM 62.2°F16.8°C 54.9°F12.7°C 77% 0.7 mph NNW1.1 kmh NNW 1.1 mph1.8 kmh 29.36 in994.2 mb 0.01 in0.3 mm 0.12 in3.0 mm 0.01 in0.3 mm
12:39 AM 62.8°F17.1°C 50.4°F10.2°C 64% 1.1 mph SW1.8 kmh SW 1.1 mph1.8 kmh 29.35 in993.9 mb 0.00 in0.0 mm 0.00 in0.0 mm 0.00 in0.0 mm
12:34 AM 63.0°F17.2°C 50.5°F10.3°C 64% Calm Calm -- 29.35 in993.9 mb 0.00 in0.0 mm 0.00 in0.0 mm 0.00 in0.0 mm
12:29 AM 62.8°F17.1°C 50.4°F10.2°C 64% 1.6 mph SW2.6 kmh SW 2.2 mph3.5 kmh 29.35 in993.9 mb 0.00 in0.0 mm 0.00 in0.0 mm 0.00 in0.0 mm
12:24 AM 63.0°F17.2°C 50.5°F10.3°C 64% Calm Calm -- 29.35 in993.9 mb 0.00 in0.0 mm 0.00 in0.0 mm 0.00 in0.0 mm
12:19 AM 63.1°F17.3°C 50.7°F10.4°C 64% Calm Calm -- 29.35 in993.9 mb 0.00 in0.0 mm 0.00 in0.0 mm 0.00 in0.0 mm
12:14 AM 63.0°F17.2°C 50.5°F10.3°C 64% 1.8 mph S2.9 kmh S 2.2 mph3.5 kmh 29.35 in993.9 mb 0.00 in0.0 mm 0.00 in0.0 mm 0.00 in0.0 mm
12:09 AM 62.8°F17.1°C 50.4°F10.2°C 64% 2.5 mph WSW4.0 kmh WSW 3.4 mph5.5 kmh 29.36 in994.2 mb 0.00 in0.0 mm 0.00 in0.0 mm 0.00 in0.0 mm
12:04 AM 62.8°F17.1°C 50.4°F10.2°C 64% 1.3 mph NW2.1 kmh NW 2.2 mph3.5 kmh 29.35 in993.9 mb 0.00 in0.0 mm 0.00 in0.0 mm 0.00 in0.0 mm